Time;durP1;ratioP1;P1;durP2;ratioP2;P2;SDS_P1;SDS_P2;PMS_P1;PMS_P2;Temp;Humidity;BMP_temperature;BMP_pressure;BME280_temperature;BME280_humidity;BME280_pressure;Samples;Min_cycle;Max_cycle;Signal;HPM_P1;HPM_P2
2022/03/21 00:01:16;;;;;;;17.30;9.60;;;;;;;6.32;79.50;97796.75;4942080;28;20063;-70
2022/03/21 00:03:42;;;;;;;16.20;9.07;;;;;;;6.30;78.46;97798.78;4941436;28;20043;-69
2022/03/21 00:06:08;;;;;;;16.60;8.52;;;;;;;6.26;78.45;97791.34;4939472;28;20718;-71
2022/03/21 00:08:33;;;;;;;14.80;7.60;;;;;;;6.20;79.00;97798.22;4938394;28;20039;-71
2022/03/21 00:10:59;;;;;;;13.48;6.85;;;;;;;6.15;78.34;97803.31;4939191;28;20211;-69
2022/03/21 00:13:25;;;;;;;13.80;7.72;;;;;;;6.08;79.42;97789.13;4939817;28;20064;-70
2022/03/21 00:15:52;;;;;;;10.73;6.22;;;;;;;6.03;79.23;97792.31;4946822;28;20031;-71
2022/03/21 00:18:20;;;;;;;14.90;8.63;;;;;;;5.98;79.04;97788.56;4942571;28;20094;-70
2022/03/21 00:20:48;;;;;;;15.15;8.07;;;;;;;5.88;80.39;97800.28;4944543;28;20046;-71
2022/03/21 00:23:14;;;;;;;12.73;6.68;;;;;;;5.79;81.02;97798.75;4944085;28;20039;-71
2022/03/21 00:25:39;;;;;;;15.38;8.50;;;;;;;5.78;80.44;97794.47;4944196;28;20387;-70
2022/03/21 00:28:08;;;;;;;17.73;7.57;;;;;;;5.70;81.55;97802.53;4944324;28;20038;-70
2022/03/21 00:30:35;;;;;;;16.42;9.02;;;;;;;5.64;81.71;97797.13;4943357;28;20047;-70
2022/03/21 00:33:01;;;;;;;14.25;8.13;;;;;;;5.58;82.44;97804.00;4943858;28;20592;-69
2022/03/21 00:35:28;;;;;;;17.23;9.90;;;;;;;5.54;82.40;97803.56;4944324;28;20126;-69
2022/03/21 00:37:53;;;;;;;15.75;7.95;;;;;;;5.52;82.24;97808.19;4942720;28;20820;-70
2022/03/21 00:40:19;;;;;;;15.25;9.32;;;;;;;5.47;82.29;97799.16;4941231;28;20117;-69
2022/03/21 00:42:46;;;;;;;19.58;8.13;;;;;;;5.45;82.89;97796.69;4942747;28;20039;-71
2022/03/21 00:45:15;;;;;;;17.02;8.63;;;;;;;5.41;82.69;97802.53;4944186;28;20155;-69
2022/03/21 00:47:44;;;;;;;14.48;8.15;;;;;;;5.39;82.61;97799.25;4945550;28;20047;-71
2022/03/21 00:50:13;;;;;;;16.98;9.85;;;;;;;5.39;83.05;97805.38;4938499;28;20047;-69
2022/03/21 00:52:44;;;;;;;17.83;8.70;;;;;;;5.41;81.62;97792.75;4942691;28;20504;-69
2022/03/21 00:55:11;;;;;;;13.25;6.65;;;;;;;5.46;80.92;97805.47;4942798;28;20070;-69
2022/03/21 00:57:42;;;;;;;14.02;7.70;;;;;;;5.36;81.82;97794.28;4942770;28;21079;-71
2022/03/21 01:00:12;;;;;;;14.43;8.15;;;;;;;5.37;82.07;97806.56;4942045;28;20117;-70
2022/03/21 01:02:38;;;;;;;11.30;6.28;;;;;;;5.30;82.14;97798.53;4954846;28;20413;-71
2022/03/21 01:05:05;;;;;;;17.42;9.40;;;;;;;5.25;82.61;97796.41;4941030;28;20043;-69
2022/03/21 01:07:31;;;;;;;16.58;7.82;;;;;;;5.24;82.40;97800.06;4942926;28;20061;-70
2022/03/21 01:09:57;;;;;;;14.35;7.78;;;;;;;5.25;82.79;97803.53;4942226;28;20569;-69
2022/03/21 01:12:23;;;;;;;11.18;6.72;;;;;;;5.25;81.59;97803.53;4940182;28;20066;-69
2022/03/21 01:14:48;;;;;;;16.35;9.30;;;;;;;5.20;83.14;97796.13;4942546;28;20047;-70
2022/03/21 01:17:14;;;;;;;11.20;7.20;;;;;;;5.18;82.49;97798.13;4944676;28;20045;-71
2022/03/21 01:19:40;;;;;;;13.65;7.75;;;;;;;5.18;82.59;97792.81;4943246;28;20042;-70
2022/03/21 01:22:06;;;;;;;13.43;7.75;;;;;;;5.07;83.41;97787.97;4944040;28;20134;-70
2022/03/21 01:24:33;;;;;;;15.27;6.40;;;;;;;5.10;83.30;97790.25;4941397;28;20374;-70
2022/03/21 01:26:58;;;;;;;15.25;8.73;;;;;;;5.05;83.68;97792.63;4944535;28;20039;-70
2022/03/21 01:29:24;;;;;;;13.02;6.07;;;;;;;5.03;84.35;97795.44;4943858;28;20070;-70
2022/03/21 01:31:49;;;;;;;11.13;7.10;;;;;;;4.97;84.79;97800.66;4942843;28;20406;-70
2022/03/21 01:34:15;;;;;;;13.98;8.57;;;;;;;4.94;84.43;97795.72;4942858;28;20071;-69
2022/03/21 01:36:41;;;;;;;14.85;7.28;;;;;;;4.94;84.94;97793.06;4943773;28;20047;-70
2022/03/21 01:39:07;;;;;;;14.38;7.65;;;;;;;4.90;84.85;97794.41;4940902;28;20710;-70
2022/03/21 01:41:33;;;;;;;13.00;6.88;;;;;;;4.84;85.90;97792.50;4942840;28;20758;-70
2022/03/21 01:43:59;;;;;;;14.90;7.88;;;;;;;4.74;87.33;97795.38;4942149;28;20043;-71
2022/03/21 01:46:26;;;;;;;15.73;8.13;;;;;;;4.66;87.98;97806.06;4943137;28;20039;-69
2022/03/21 01:48:51;;;;;;;11.25;6.43;;;;;;;4.66;87.53;97798.94;4943117;28;20074;-70
2022/03/21 01:51:17;;;;;;;14.57;8.43;;;;;;;4.68;86.98;97807.56;4941390;28;20050;-71
2022/03/21 01:56:27;;;;;;;17.38;8.52;;;;;;;4.61;88.08;97806.63;4942750;28;20375;-70
2022/03/21 01:58:53;;;;;;;13.68;7.60;;;;;;;4.54;87.86;97800.38;4942545;28;20066;-71
2022/03/21 02:01:19;;;;;;;19.60;7.10;;;;;;;4.58;88.16;97812.25;4939494;28;20484;-71
2022/03/21 02:03:45;;;;;;;13.30;7.22;;;;;;;4.52;88.57;97806.88;4941099;28;20047;-71
2022/03/21 02:06:11;;;;;;;12.30;6.07;;;;;;;4.50;88.59;97807.00;4956689;28;20069;-71
2022/03/21 02:08:37;;;;;;;15.25;8.23;;;;;;;4.48;89.17;97806.38;4942238;28;20051;-71
2022/03/21 02:11:02;;;;;;;15.13;7.78;;;;;;;4.45;89.42;97804.09;4941428;28;20114;-71
2022/03/21 02:13:28;;;;;;;14.85;8.20;;;;;;;4.42;89.65;97804.44;4944007;28;20407;-71
2022/03/21 02:15:53;;;;;;;14.48;8.02;;;;;;;4.44;89.05;97799.78;4942968;28;20050;-70
2022/03/21 02:18:20;;;;;;;12.90;7.90;;;;;;;4.46;89.01;97798.59;4953974;28;20035;-70
2022/03/21 02:20:48;;;;;;;13.75;7.75;;;;;;;4.42;88.95;97791.19;4942665;28;20047;-71
2022/03/21 02:23:22;;;;;;;12.60;6.38;;;;;;;4.41;88.95;97794.81;4941493;28;20158;-69
2022/03/21 02:25:49;;;;;;;13.30;7.13;;;;;;;4.39;88.89;97804.78;4940887;28;20121;-70
2022/03/21 02:28:16;;;;;;;13.73;6.47;;;;;;;4.32;89.92;97796.72;4942047;28;20057;-71
2022/03/21 02:30:46;;;;;;;15.52;8.13;;;;;;;4.30;89.94;97797.91;4939508;28;20066;-69
2022/03/21 02:33:13;;;;;;;15.50;9.00;;;;;;;4.30;89.90;97801.38;4940091;28;20065;-70
2022/03/21 02:35:41;;;;;;;19.15;8.45;;;;;;;4.30;89.65;97804.03;4940773;28;20356;-69
2022/03/21 02:38:07;;;;;;;13.43;7.55;;;;;;;4.27;90.05;97804.34;4941085;28;20509;-70
2022/03/21 02:40:33;;;;;;;13.35;7.28;;;;;;;4.23;90.10;97794.31;4941534;28;20047;-69
2022/03/21 02:42:58;;;;;;;13.40;6.97;;;;;;;4.23;89.94;97796.97;4940547;28;20331;-69
2022/03/21 02:45:24;;;;;;;15.10;7.93;;;;;;;4.22;90.39;97803.25;4941109;28;20114;-69
2022/03/21 02:47:50;;;;;;;16.30;8.30;;;;;;;4.15;90.54;97808.44;4943201;28;20063;-69
2022/03/21 02:50:19;;;;;;;11.35;6.40;;;;;;;4.11;90.75;97809.75;4940316;28;20133;-69
2022/03/21 02:52:48;;;;;;;11.85;6.40;;;;;;;4.06;91.35;97805.00;4937214;28;20057;-71
2022/03/21 02:55:14;;;;;;;16.90;9.05;;;;;;;4.06;90.95;97812.13;4936028;28;20127;-70
2022/03/21 02:57:39;;;;;;;13.93;8.65;;;;;;;4.07;90.89;97800.53;4939544;28;20118;-71
2022/03/21 03:00:06;;;;;;;16.40;7.93;;;;;;;4.09;90.98;97807.28;4936671;28;20043;-69
2022/03/21 03:02:31;;;;;;;14.38;8.90;;;;;;;3.99;91.93;97800.59;4935934;28;20441;-70
2022/03/21 03:04:57;;;;;;;14.35;8.85;;;;;;;3.92;92.46;97805.75;4931424;28;20047;-70
2022/03/21 03:07:22;;;;;;;21.42;8.55;;;;;;;3.85;93.21;97807.44;4935568;28;20518;-69
2022/03/21 03:09:47;;;;;;;15.02;8.45;;;;;;;3.77;93.55;97816.25;4937149;28;20125;-70
2022/03/21 03:12:13;;;;;;;16.33;8.88;;;;;;;3.71;93.91;97818.75;4936258;28;20043;-70
2022/03/21 03:14:38;;;;;;;15.50;8.60;;;;;;;3.71;93.68;97818.75;4935011;28;20716;-71
2022/03/21 03:17:04;;;;;;;16.40;9.15;;;;;;;3.59;95.05;97820.97;4931926;28;20082;-70
2022/03/21 03:19:30;;;;;;;17.17;9.15;;;;;;;3.54;95.44;97815.34;4935783;28;20042;-69
2022/03/21 03:21:56;;;;;;;15.88;8.77;;;;;;;3.60;94.83;97828.72;4936796;28;20046;-71
2022/03/21 03:24:24;;;;;;;14.43;8.90;;;;;;;3.67;93.68;97823.56;4935438;28;20058;-69
2022/03/21 03:26:50;;;;;;;13.98;8.15;;;;;;;3.67;93.68;97822.75;4937323;28;20386;-69
2022/03/21 03:29:16;;;;;;;14.13;8.27;;;;;;;3.67;93.63;97830.69;4938902;28;20053;-69
2022/03/21 03:31:42;;;;;;;12.68;8.10;;;;;;;3.64;93.80;97835.31;4933905;28;20046;-71
2022/03/21 03:34:07;;;;;;;13.10;7.40;;;;;;;3.61;93.28;97829.53;4934293;28;20035;-69
2022/03/21 03:36:33;;;;;;;16.40;8.00;;;;;;;3.59;93.85;97828.91;4939937;28;20067;-69
2022/03/21 03:38:59;;;;;;;14.90;7.82;;;;;;;3.63;92.83;97831.00;4935931;28;20043;-69
2022/03/21 03:41:27;;;;;;;14.68;7.38;;;;;;;3.60;93.17;97826.06;4937352;28;20035;-70
2022/03/21 03:43:52;;;;;;;15.95;8.82;;;;;;;3.66;92.47;97834.31;4934897;28;20043;-69
2022/03/21 03:46:18;;;;;;;13.30;7.32;;;;;;;3.62;92.03;97821.44;4931939;28;20345;-69
2022/03/21 03:48:44;;;;;;;12.23;7.55;;;;;;;3.66;92.67;97823.72;4934540;28;20050;-69
2022/03/21 03:51:11;;;;;;;15.73;8.48;;;;;;;3.68;91.81;97827.88;4938161;28;20066;-71
2022/03/21 03:53:37;;;;;;;13.93;8.52;;;;;;;3.72;91.38;97831.81;4941577;28;20043;-71
2022/03/21 03:56:03;;;;;;;15.93;8.82;;;;;;;3.74;91.21;97837.78;4940995;28;20394;-70
2022/03/21 03:58:30;;;;;;;15.48;8.35;;;;;;;3.74;91.53;97835.13;4939575;28;20035;-71
2022/03/21 04:00:56;;;;;;;15.40;8.23;;;;;;;3.76;90.44;97846.38;4942455;28;20047;-69
2022/03/21 04:47:58;;;;;;;16.52;8.05;;;;;;;3.24;92.82;97873.28;2328971;23;20527;-69
2022/03/21 04:50:24;;;;;;;12.57;6.53;;;;;;;3.27;92.04;97869.50;4956840;28;20042;-70
2022/03/21 04:52:49;;;;;;;18.30;8.75;;;;;;;3.30;91.58;97867.34;4958960;28;20037;-69
2022/03/21 04:55:15;;;;;;;11.40;7.00;;;;;;;3.31;90.85;97871.63;4957012;28;20043;-69
2022/03/21 04:57:41;;;;;;;14.45;8.00;;;;;;;3.37;90.35;97864.84;4960196;28;20042;-69
2022/03/21 05:00:07;;;;;;;15.00;8.43;;;;;;;3.35;91.12;97872.13;4961562;28;20051;-71
2022/03/21 05:02:32;;;;;;;16.38;8.88;;;;;;;3.37;90.61;97870.16;4979312;28;20535;-70
2022/03/21 05:04:58;;;;;;;14.30;7.43;;;;;;;3.39;89.58;97872.63;4979556;28;20046;-70
2022/03/21 05:07:25;;;;;;;18.05;8.35;;;;;;;3.33;90.61;97868.81;4981198;28;20076;-69
2022/03/21 05:09:51;;;;;;;12.85;7.45;;;;;;;3.27;91.31;97872.16;4985498;28;20042;-71
2022/03/21 05:12:16;;;;;;;19.92;7.63;;;;;;;3.31;90.78;97876.09;4981073;28;20189;-69
2022/03/21 05:14:42;;;;;;;15.88;8.38;;;;;;;3.31;90.48;97873.44;4977462;28;20046;-71
2022/03/21 05:17:10;;;;;;;14.77;7.80;;;;;;;3.34;90.13;97881.88;4978769;28;20046;-69
2022/03/21 05:19:36;;;;;;;11.02;6.57;;;;;;;3.30;90.61;97880.56;4979008;28;20451;-69
2022/03/21 05:22:06;;;;;;;14.50;5.78;;;;;;;3.30;90.64;97882.38;4982127;28;20038;-69
2022/03/21 05:32:46;;;;;;;13.98;8.00;;;;;;;3.25;91.04;97876.75;4980093;28;20038;-71
2022/03/21 05:37:56;;;;;;;15.55;8.38;;;;;;;3.22;91.92;97872.66;4982447;28;21297;-69
2022/03/21 05:40:41;;;;;;;16.27;9.10;;;;;;;3.28;90.97;97889.69;4980355;28;20030;-70
2022/03/21 05:43:06;;;;;;;16.38;8.40;;;;;;;3.25;92.07;97880.22;4980501;28;20061;-71
2022/03/21 05:45:32;;;;;;;12.63;7.07;;;;;;;3.31;91.10;97886.69;4981072;28;20042;-69
2022/03/21 05:50:43;;;;;;;21.55;8.88;;;;;;;3.37;91.17;97909.84;4981294;28;20470;-71
2022/03/21 05:53:09;;;;;;;16.85;8.85;;;;;;;3.30;93.09;97909.69;4980743;28;20049;-70
2022/03/21 05:55:35;;;;;;;18.67;9.63;;;;;;;3.30;93.96;97908.84;4980823;28;20438;-70
2022/03/21 05:58:01;;;;;;;18.25;8.15;;;;;;;3.24;95.56;97920.91;4979177;28;20046;-70
2022/03/21 06:00:29;;;;;;;16.63;8.93;;;;;;;3.30;94.76;97922.06;4962449;28;20053;-69
2022/03/21 06:02:55;;;;;;;14.52;8.23;;;;;;;3.31;96.47;97919.25;4978449;28;20042;-70
2022/03/21 06:05:22;;;;;;;16.60;8.38;;;;;;;3.38;96.92;97919.41;4979206;28;20049;-69
2022/03/21 06:07:49;;;;;;;10.68;6.57;;;;;;;3.34;95.73;97918.09;4981284;28;20121;-70
2022/03/21 06:10:15;;;;;;;16.13;7.43;;;;;;;3.52;93.85;97909.97;4977300;28;20489;-69
2022/03/21 06:12:41;;;;;;;16.02;8.57;;;;;;;3.72;91.05;97916.53;4979700;28;20048;-69
2022/03/21 06:15:08;;;;;;;14.38;8.27;;;;;;;3.87;89.72;97898.13;4979948;28;20497;-70
2022/03/21 06:17:41;;;;;;;15.38;8.45;;;;;;;4.02;89.16;97907.00;4982705;28;20595;-69
2022/03/21 06:20:17;;;;;;;14.35;8.60;;;;;;;4.10;88.09;97909.63;4976477;28;20042;-70
2022/03/21 06:22:43;;;;;;;11.32;6.15;;;;;;;4.18;85.52;97914.88;4981592;28;20038;-70
2022/03/21 06:25:10;;;;;;;14.90;6.85;;;;;;;4.26;85.01;97921.97;4978817;28;20045;-69
2022/03/21 06:27:40;;;;;;;16.92;7.75;;;;;;;4.34;86.27;97910.50;4965802;28;20030;-71
2022/03/21 06:30:07;;;;;;;13.00;7.22;;;;;;;4.37;85.16;97921.59;4976130;28;20042;-70
2022/03/21 06:32:34;;;;;;;15.50;8.05;;;;;;;4.46;84.01;97927.69;4981290;28;20598;-69
2022/03/21 06:34:59;;;;;;;14.38;6.90;;;;;;;4.48;83.88;97928.31;4979265;28;20201;-69
2022/03/21 06:37:25;;;;;;;15.23;7.50;;;;;;;4.56;82.11;97938.06;4978849;28;20128;-69
2022/03/21 06:39:50;;;;;;;9.90;5.68;;;;;;;4.58;83.08;97947.47;4978899;28;20042;-70
2022/03/21 06:42:17;;;;;;;17.00;7.75;;;;;;;4.65;82.67;97940.47;4979395;28;20035;-70
2022/03/21 06:44:43;;;;;;;13.65;8.23;;;;;;;4.74;82.52;97938.59;4962193;28;20390;-70
2022/03/21 06:47:10;;;;;;;14.60;7.82;;;;;;;4.86;82.35;97939.84;4979703;28;20045;-71
2022/03/21 06:49:36;;;;;;;17.13;8.45;;;;;;;4.94;81.56;97939.78;4978262;28;20078;-69
2022/03/21 06:52:02;;;;;;;15.73;8.25;;;;;;;5.11;80.58;97937.84;4979065;28;20255;-71
2022/03/21 06:54:29;;;;;;;16.40;9.05;;;;;;;5.24;78.89;97939.91;4979593;28;20038;-71
2022/03/21 06:56:55;;;;;;;15.35;8.07;;;;;;;5.44;75.71;97937.56;4979673;28;20109;-71
2022/03/21 06:59:22;;;;;;;14.75;6.78;;;;;;;5.54;73.73;97946.13;4974967;28;20042;-69
2022/03/21 07:01:47;;;;;;;13.80;7.00;;;;;;;5.62;72.45;97947.88;4976021;28;20042;-70
2022/03/21 07:04:13;;;;;;;12.63;6.60;;;;;;;5.61;71.21;97947.03;4975621;28;20133;-70
2022/03/21 07:06:39;;;;;;;9.13;5.50;;;;;;;5.65;68.85;97945.66;4979834;28;20120;-70
2022/03/21 07:09:04;;;;;;;15.38;8.43;;;;;;;5.81;69.46;97953.47;4976697;28;20121;-70
2022/03/21 07:11:31;;;;;;;13.90;7.93;;;;;;;6.02;72.09;97944.00;4978298;28;20115;-69
2022/03/21 07:13:57;;;;;;;13.23;8.02;;;;;;;6.15;69.85;97960.13;4978072;28;20046;-70
2022/03/21 07:16:22;;;;;;;13.45;8.00;;;;;;;6.18;67.06;97954.44;4977900;28;20042;-70
2022/03/21 07:18:49;;;;;;;15.75;7.35;;;;;;;6.12;67.64;97965.78;4976375;28;20042;-70
2022/03/21 07:21:16;;;;;;;14.05;7.63;;;;;;;6.14;67.12;97966.41;4978286;28;20042;-69
2022/03/21 07:23:42;;;;;;;10.63;5.43;;;;;;;6.25;65.12;97973.94;4961372;28;20042;-71
2022/03/21 07:26:08;;;;;;;14.02;7.70;;;;;;;6.41;65.57;97970.28;4975635;28;20034;-70
2022/03/21 07:28:34;;;;;;;12.90;7.20;;;;;;;6.56;65.20;97972.91;4977597;28;20045;-69
2022/03/21 07:30:59;;;;;;;11.00;5.72;;;;;;;6.61;63.54;97979.31;4977606;28;20050;-70
2022/03/21 07:33:24;;;;;;;16.25;9.00;;;;;;;6.78;66.50;97981.78;4973129;28;20037;-70
2022/03/21 07:35:51;;;;;;;17.50;7.50;;;;;;;6.82;65.91;97972.38;4980014;28;20699;-70
2022/03/21 07:38:19;;;;;;;14.38;7.82;;;;;;;7.08;62.34;97983.34;4974977;28;20081;-69
2022/03/21 07:40:46;;;;;;;20.40;9.00;;;;;;;7.14;61.34;97982.56;4979528;28;20061;-69
2022/03/21 07:43:13;;;;;;;15.80;5.93;;;;;;;7.07;60.03;97983.50;4975326;28;20038;-69
2022/03/21 07:48:23;;;;;;;14.55;6.20;;;;;;;7.29;57.21;97990.50;4975940;28;20050;-69
2022/03/21 07:50:49;;;;;;;17.75;9.02;;;;;;;7.40;60.38;97987.34;4976845;28;20103;-69
2022/03/21 07:53:15;;;;;;;16.65;9.05;;;;;;;7.44;57.67;97982.44;4976475;28;20468;-69
2022/03/21 07:55:40;;;;;;;14.73;8.52;;;;;;;7.64;58.96;97983.44;4980900;28;20038;-69
2022/03/21 07:58:06;;;;;;;16.27;7.35;;;;;;;7.74;57.42;97972.44;4977487;28;20053;-71
2022/03/21 08:00:32;;;;;;;18.15;8.25;;;;;;;7.69;57.57;97982.84;4980891;28;20057;-72
2022/03/21 08:02:58;;;;;;;14.38;7.28;;;;;;;7.68;57.73;97981.19;4980869;28;20053;-72
2022/03/21 08:05:26;;;;;;;14.60;7.93;;;;;;;7.64;55.34;97988.75;4977019;28;20039;-71
2022/03/21 08:07:52;;;;;;;14.48;7.53;;;;;;;7.62;55.85;97989.97;4980829;28;20042;-72
2022/03/21 08:10:19;;;;;;;16.17;8.63;;;;;;;7.75;56.75;97987.41;4978359;28;20429;-71
2022/03/21 08:12:46;;;;;;;14.57;7.50;;;;;;;7.72;54.02;97998.47;4977099;28;20054;-71
2022/03/21 08:15:13;;;;;;;16.42;8.13;;;;;;;7.77;53.97;98001.34;4979241;28;20437;-71
2022/03/21 08:17:57;;;;;;;14.82;8.25;;;;;;;7.95;54.73;97999.06;4979723;28;20038;-71
2022/03/21 08:20:24;;;;;;;15.43;7.32;;;;;;;8.10;54.13;97999.78;4976788;28;20433;-71
2022/03/21 08:22:52;;;;;;;18.85;9.27;;;;;;;8.13;52.94;97992.38;4978307;28;20617;-72
2022/03/21 08:25:20;;;;;;;11.75;7.32;;;;;;;8.22;52.80;97991.22;4961187;28;20042;-71
2022/03/21 08:27:47;;;;;;;15.82;8.30;;;;;;;8.36;53.34;97998.31;4978638;28;20421;-71
2022/03/21 08:30:15;;;;;;;16.77;7.93;;;;;;;8.52;53.09;98003.31;4980916;28;20052;-71
2022/03/21 08:32:45;;;;;;;14.20;7.93;;;;;;;8.56;51.87;98001.06;4979795;28;20415;-70
2022/03/21 08:35:11;;;;;;;18.38;8.95;;;;;;;8.70;52.49;97999.28;4984092;28;20062;-71
2022/03/21 08:37:37;;;;;;;12.60;8.13;;;;;;;8.64;51.75;98007.06;4979985;28;20443;-71
2022/03/21 08:40:04;;;;;;;15.40;8.63;;;;;;;8.69;52.39;98005.66;4980038;28;20045;-71
2022/03/21 08:42:29;;;;;;;13.10;7.57;;;;;;;8.86;52.46;97997.09;4981219;28;20658;-70
2022/03/21 08:44:56;;;;;;;18.67;9.27;;;;;;;8.95;52.24;98003.09;4980709;28;20034;-70
2022/03/21 08:47:22;;;;;;;14.82;7.90;;;;;;;9.06;52.49;98005.16;4955323;28;20069;-71
2022/03/21 08:49:48;;;;;;;20.17;9.88;;;;;;;9.20;53.34;98000.69;4977554;28;20086;-72
2022/03/21 08:52:13;;;;;;;18.45;9.68;;;;;;;9.37;51.17;97998.47;4981298;28;20172;-71
2022/03/21 08:54:39;;;;;;;16.88;9.07;;;;;;;9.40;51.08;98008.72;4979547;28;20045;-72
2022/03/21 08:57:05;;;;;;;15.60;9.23;;;;;;;9.54;51.13;98007.72;4980547;28;20034;-71
2022/03/21 08:59:32;;;;;;;18.08;8.70;;;;;;;9.50;49.61;98003.81;4979512;28;20070;-72
2022/03/21 09:01:57;;;;;;;18.42;9.77;;;;;;;9.37;49.20;97996.59;4981970;28;20560;-71
2022/03/21 09:04:23;;;;;;;17.70;10.13;;;;;;;9.48;49.17;98008.53;4981311;28;20042;-72
2022/03/21 09:06:49;;;;;;;14.52;7.38;;;;;;;9.38;48.53;98005.44;4981141;28;20042;-72
2022/03/21 09:09:17;;;;;;;16.45;9.45;;;;;;;9.63;49.85;98005.66;4982397;28;20042;-70
2022/03/21 09:11:43;;;;;;;16.15;8.95;;;;;;;9.85;50.59;98000.94;4982182;28;20181;-71
2022/03/21 09:14:09;;;;;;;14.82;7.18;;;;;;;9.99;48.37;98005.28;4981917;28;20038;-71
2022/03/21 09:16:38;;;;;;;18.95;9.35;;;;;;;10.27;48.88;97997.00;4982600;28;20076;-71
2022/03/21 09:19:03;;;;;;;18.42;9.38;;;;;;;10.33;48.17;97991.66;4981637;28;20081;-72
2022/03/21 09:21:29;;;;;;;15.98;9.13;;;;;;;10.41;48.30;97997.81;4981422;28;20045;-72
2022/03/21 09:23:56;;;;;;;18.02;8.95;;;;;;;10.39;47.72;97994.53;4979400;28;20097;-71
2022/03/21 09:26:22;;;;;;;19.25;9.30;;;;;;;10.55;48.03;97994.06;4983182;28;20923;-71
2022/03/21 09:28:49;;;;;;;15.27;9.02;;;;;;;10.88;47.25;97996.63;4980675;28;20070;-70
2022/03/21 09:31:16;;;;;;;16.80;8.38;;;;;;;10.83;46.53;97997.28;4980447;28;20134;-70
2022/03/21 09:33:42;;;;;;;18.23;8.18;;;;;;;10.74;46.60;98001.22;4980757;28;20941;-70
2022/03/21 09:36:09;;;;;;;13.13;7.57;;;;;;;11.01;47.18;98001.09;4980896;28;20034;-71
2022/03/21 09:38:36;;;;;;;15.15;8.32;;;;;;;11.34;47.06;98008.94;4980961;28;20049;-70
2022/03/21 09:41:03;;;;;;;15.35;8.55;;;;;;;11.34;46.05;98001.72;4979566;28;20546;-71
2022/03/21 09:43:30;;;;;;;15.57;7.60;;;;;;;11.24;46.18;98006.75;4980171;28;20064;-70
2022/03/21 09:45:58;;;;;;;26.08;10.15;;;;;;;11.59;46.42;97995.56;4979736;28;20073;-71
2022/03/21 09:48:26;;;;;;;19.48;9.50;;;;;;;11.92;46.37;97998.88;4955205;28;20054;-70
2022/03/21 09:50:52;;;;;;;19.85;9.55;;;;;;;11.89;45.40;97998.47;4981691;28;20765;-70
2022/03/21 09:53:19;;;;;;;15.68;9.18;;;;;;;11.71;45.33;98002.72;4979672;28;20080;-71
2022/03/21 09:55:46;;;;;;;17.38;9.30;;;;;;;12.04;45.42;98006.19;4980190;28;20073;-69
2022/03/21 09:58:12;;;;;;;17.13;9.88;;;;;;;11.82;45.48;98003.06;4979739;28;20081;-70
2022/03/21 10:00:39;;;;;;;22.10;9.82;;;;;;;11.65;45.39;98000.06;4979213;28;20074;-71
2022/03/21 10:03:05;;;;;;;17.73;9.48;;;;;;;11.65;45.88;98006.25;4980219;28;20712;-70
2022/03/21 10:05:43;;;;;;;17.70;10.57;;;;;;;11.70;44.97;98003.75;4983320;28;20038;-69
2022/03/21 10:08:16;;;;;;;20.10;9.80;;;;;;;11.83;44.95;97996.66;4980300;28;20053;-71
2022/03/21 10:10:51;;;;;;;20.55;10.85;;;;;;;12.05;45.09;97992.53;4980864;28;20156;-71
2022/03/21 10:13:18;;;;;;;21.45;10.00;;;;;;;12.04;45.49;97992.78;4981493;28;20052;-69
2022/03/21 10:15:43;;;;;;;18.98;10.00;;;;;;;12.63;44.43;97988.66;4979260;28;20042;-69
2022/03/21 10:18:12;;;;;;;19.13;8.68;;;;;;;12.72;42.81;97992.69;4979974;28;20044;-69
2022/03/21 10:20:39;;;;;;;14.65;7.57;;;;;;;12.79;42.49;97991.56;4979867;28;20384;-69
2022/03/21 10:23:24;;;;;;;19.10;9.80;;;;;;;12.43;43.50;97986.19;4976946;28;20524;-70
2022/03/21 10:25:50;;;;;;;16.20;9.15;;;;;;;12.63;42.89;97991.34;4978869;28;20042;-71
2022/03/21 10:28:36;;;;;;;19.17;8.75;;;;;;;13.24;42.64;97982.34;4976051;28;20034;-70
2022/03/21 10:31:03;;;;;;;18.70;9.45;;;;;;;14.07;41.14;97982.25;4979798;28;20390;-71
2022/03/21 10:33:29;;;;;;;17.48;8.88;;;;;;;14.94;38.30;97984.13;4978299;28;20312;-71
2022/03/21 10:35:54;;;;;;;16.38;9.27;;;;;;;15.43;37.22;97984.56;4979732;28;20046;-69
2022/03/21 10:38:49;;;;;;;25.05;7.88;;;;;;;16.29;36.49;97983.28;4977340;28;20484;-70
2022/03/21 10:41:14;;;;;;;12.13;7.78;;;;;;;17.13;34.56;97982.22;4962150;28;20054;-70
2022/03/21 10:43:52;;;;;;;15.00;8.32;;;;;;;16.87;34.01;97976.50;4979574;28;20042;-70
2022/03/21 10:46:21;;;;;;;16.55;8.18;;;;;;;17.63;33.46;97978.41;4978127;28;20046;-70
2022/03/21 10:49:09;;;;;;;18.08;9.95;;;;;;;17.94;32.76;97979.50;4980153;28;20060;-70
2022/03/21 10:51:51;;;;;;;18.13;10.35;;;;;;;19.90;30.48;97974.38;4981872;28;20128;-70
2022/03/21 10:54:50;;;;;;;16.02;9.90;;;;;;;20.14;30.29;97971.91;4978295;28;20054;-71
2022/03/21 10:57:36;;;;;;;14.38;7.85;;;;;;;18.91;31.02;97973.63;4957449;28;20041;-70
2022/03/21 11:00:11;;;;;;;17.25;8.70;;;;;;;20.14;29.62;97965.66;4980024;28;20501;-72
2022/03/21 11:02:37;;;;;;;15.63;9.25;;;;;;;20.34;29.03;97959.41;4981099;28;20465;-70
2022/03/21 11:05:04;;;;;;;17.60;9.73;;;;;;;20.88;29.04;97964.16;4979429;28;20115;-72
2022/03/21 11:07:30;;;;;;;16.73;8.68;;;;;;;20.19;29.57;97966.47;4982256;28;20556;-72
2022/03/21 11:09:56;;;;;;;14.93;9.43;;;;;;;21.35;29.07;97959.03;4978722;28;20038;-71
2022/03/21 11:12:22;;;;;;;17.95;9.43;;;;;;;22.98;27.16;97951.31;4980151;28;20107;-70
2022/03/21 11:14:49;;;;;;;16.17;9.15;;;;;;;24.28;25.80;97959.72;4979934;28;20046;-71
2022/03/21 11:17:15;;;;;;;18.00;9.32;;;;;;;21.68;28.21;97962.09;4982281;28;20046;-70
2022/03/21 11:19:42;;;;;;;17.17;9.15;;;;;;;21.02;28.60;97962.47;4979664;28;20516;-70
2022/03/21 11:22:09;;;;;;;17.48;9.85;;;;;;;23.24;26.68;97951.75;4977409;28;20412;-72
2022/03/21 11:24:38;;;;;;;15.05;8.45;;;;;;;23.12;26.65;97956.88;4980468;28;20509;-71
2022/03/21 11:27:31;;;;;;;13.07;7.82;;;;;;;22.43;26.89;97959.81;4980077;28;20034;-70
2022/03/21 11:30:07;;;;;;;14.00;7.88;;;;;;;22.82;26.31;97958.84;4977143;28;20069;-71
2022/03/21 11:32:57;;;;;;;14.60;9.50;;;;;;;22.95;26.61;97949.94;4979140;28;20045;-71
2022/03/21 11:35:25;;;;;;;14.93;9.68;;;;;;;24.06;25.23;97948.63;4981619;28;20053;-70
2022/03/21 11:37:51;;;;;;;15.80;9.18;;;;;;;24.96;24.53;97952.66;4979148;28;20038;-70
2022/03/21 11:40:27;;;;;;;15.15;8.00;;;;;;;23.77;25.30;97955.09;4977558;28;20057;-72
2022/03/21 11:42:55;;;;;;;14.80;8.90;;;;;;;24.50;25.42;97950.03;4288974;28;10000970;-71
2022/03/21 11:45:32;;;;;;;15.85;8.63;;;;;;;25.28;23.35;97936.09;4974770;28;20034;-72
2022/03/21 11:48:22;;;;;;;13.65;8.38;;;;;;;24.16;25.07;97949.25;4976163;28;20128;-71
2022/03/21 11:51:16;;;;;;;19.63;9.65;;;;;;;24.33;24.17;97943.22;4976553;28;20527;-71
2022/03/21 11:53:49;;;;;;;12.52;8.23;;;;;;;23.67;25.17;97940.81;4975659;28;20104;-70
2022/03/21 11:56:36;;;;;;;21.67;8.15;;;;;;;24.46;24.79;97936.16;4975937;28;20111;-70
2022/03/21 11:59:02;;;;;;;14.27;8.43;;;;;;;24.46;23.81;97933.44;4974897;28;20070;-71
2022/03/21 12:01:29;;;;;;;17.17;9.63;;;;;;;25.03;24.51;97925.72;4976555;28;20502;-72
2022/03/21 12:03:55;;;;;;;16.40;9.55;;;;;;;25.76;23.54;97929.31;4975674;28;20902;-70
2022/03/21 12:06:30;;;;;;;13.65;8.88;;;;;;;24.73;24.35;97927.94;4977906;28;20133;-72
2022/03/21 12:08:59;;;;;;;14.50;9.30;;;;;;;25.65;23.24;97928.69;4978286;28;20046;-72
2022/03/21 12:11:47;;;;;;;18.27;9.48;;;;;;;26.07;23.02;97929.34;4980574;28;20139;-72
2022/03/21 12:14:26;;;;;;;18.27;9.52;;;;;;;25.74;23.42;97929.59;4979100;28;20041;-72
2022/03/21 12:17:00;;;;;;;18.88;9.68;;;;;;;25.41;23.65;97917.22;4977358;28;20535;-71
2022/03/21 12:19:50;;;;;;;13.00;9.05;;;;;;;24.90;23.93;97921.03;4978146;28;20049;-71
2022/03/21 12:22:34;;;;;;;18.98;9.95;;;;;;;26.62;23.65;97916.09;4979107;28;20270;-71
2022/03/21 12:25:11;;;;;;;13.85;8.75;;;;;;;26.19;23.27;97913.09;4981389;28;20096;-71
2022/03/21 12:27:53;;;;;;;13.18;9.00;;;;;;;25.16;23.77;97908.47;4980291;28;20440;-71
2022/03/21 12:30:23;;;;;;;19.17;10.90;;;;;;;25.92;23.12;97905.06;4977351;28;20053;-71
2022/03/21 12:33:14;;;;;;;16.02;10.00;;;;;;;27.73;22.24;97905.59;4979659;28;20038;-70
2022/03/21 12:35:42;;;;;;;13.65;8.57;;;;;;;26.32;23.20;97911.41;4982225;28;20077;-72
2022/03/21 12:38:09;;;;;;;18.00;9.57;;;;;;;28.51;22.33;97902.66;4979540;28;20042;-72
2022/03/21 12:40:55;;;;;;;14.05;10.20;;;;;;;27.99;21.09;97900.03;4981902;28;20069;-72